sensor_id;sensor_type;location;lat;lon;timestamp;pressure;altitude;pressure_sealevel;temperature;humidity
52935;BME280;38802;50.198;19.796;2023-03-11T00:00:39;93652.79;;;7.03;80.42
52935;BME280;38802;50.198;19.796;2023-03-11T00:03:23;93648.50;;;7.04;80.54
52935;BME280;38802;50.198;19.796;2023-03-11T00:05:52;93645.08;;;7.03;80.29
52935;BME280;38802;50.198;19.796;2023-03-11T00:08:22;93644.83;;;7.02;80.46
52935;BME280;38802;50.198;19.796;2023-03-11T00:10:53;93645.52;;;7.05;80.55
52935;BME280;38802;50.198;19.796;2023-03-11T00:13:22;93641.71;;;7.03;80.32
52935;BME280;38802;50.198;19.796;2023-03-11T00:15:52;93644.20;;;7.04;80.41
52935;BME280;38802;50.198;19.796;2023-03-11T00:18:24;93641.81;;;7.04;80.16
52935;BME280;38802;50.198;19.796;2023-03-11T00:20:55;93645.82;;;7.04;80.32
52935;BME280;38802;50.198;19.796;2023-03-11T00:23:25;93645.36;;;7.06;80.24
52935;BME280;38802;50.198;19.796;2023-03-11T00:25:53;93645.59;;;7.07;80.31
52935;BME280;38802;50.198;19.796;2023-03-11T00:28:21;93643.53;;;7.09;80.16
52935;BME280;38802;50.198;19.796;2023-03-11T00:30:52;93638.45;;;7.09;80.21
52935;BME280;38802;50.198;19.796;2023-03-11T00:33:21;93633.92;;;7.08;80.36
52935;BME280;38802;50.198;19.796;2023-03-11T00:35:49;93624.33;;;7.06;80.16
52935;BME280;38802;50.198;19.796;2023-03-11T00:38:20;93623.97;;;7.06;80.06
52935;BME280;38802;50.198;19.796;2023-03-11T00:40:48;93627.89;;;7.03;80.00
52935;BME280;38802;50.198;19.796;2023-03-11T00:43:16;93627.29;;;7.03;80.00
52935;BME280;38802;50.198;19.796;2023-03-11T00:45:44;93628.58;;;7.02;79.90
52935;BME280;38802;50.198;19.796;2023-03-11T00:48:13;93619.23;;;7.02;79.88
52935;BME280;38802;50.198;19.796;2023-03-11T00:50:41;93617.55;;;7.02;79.91
52935;BME280;38802;50.198;19.796;2023-03-11T00:53:10;93611.16;;;7.02;79.98
52935;BME280;38802;50.198;19.796;2023-03-11T00:55:39;93609.35;;;7.02;79.79
52935;BME280;38802;50.198;19.796;2023-03-11T00:58:10;93614.20;;;7.02;79.87
52935;BME280;38802;50.198;19.796;2023-03-11T01:00:51;93613.40;;;7.02;79.92
52935;BME280;38802;50.198;19.796;2023-03-11T01:03:19;93612.75;;;7.03;79.84
52935;BME280;38802;50.198;19.796;2023-03-11T01:05:48;93608.99;;;7.02;79.90
52935;BME280;38802;50.198;19.796;2023-03-11T01:08:16;93603.80;;;7.04;79.74
52935;BME280;38802;50.198;19.796;2023-03-11T01:10:44;93604.11;;;7.03;79.75
52935;BME280;38802;50.198;19.796;2023-03-11T01:13:12;93600.44;;;7.03;79.57
52935;BME280;38802;50.198;19.796;2023-03-11T01:15:41;93602.40;;;7.01;79.60
52935;BME280;38802;50.198;19.796;2023-03-11T01:18:09;93598.02;;;7.01;79.65
52935;BME280;38802;50.198;19.796;2023-03-11T01:20:37;93602.95;;;7.01;79.63
52935;BME280;38802;50.198;19.796;2023-03-11T01:23:07;93600.91;;;7.01;79.69
52935;BME280;38802;50.198;19.796;2023-03-11T01:25:35;93595.92;;;7.02;79.48
52935;BME280;38802;50.198;19.796;2023-03-11T01:28:04;93594.63;;;7.03;79.53
52935;BME280;38802;50.198;19.796;2023-03-11T01:30:32;93595.70;;;7.03;79.35
52935;BME280;38802;50.198;19.796;2023-03-11T01:33:01;93595.50;;;7.03;78.95
52935;BME280;38802;50.198;19.796;2023-03-11T01:35:30;93591.00;;;7.03;78.59
52935;BME280;38802;50.198;19.796;2023-03-11T01:37:58;93592.10;;;7.03;78.29
52935;BME280;38802;50.198;19.796;2023-03-11T01:40:37;93594.08;;;7.03;77.93
52935;BME280;38802;50.198;19.796;2023-03-11T01:48:37;93594.13;;;6.98;77.08
52935;BME280;38802;50.198;19.796;2023-03-11T01:51:06;93596.34;;;6.95;76.70
52935;BME280;38802;50.198;19.796;2023-03-11T01:53:34;93590.92;;;6.94;76.43
52935;BME280;38802;50.198;19.796;2023-03-11T01:56:03;93593.77;;;6.91;76.27
52935;BME280;38802;50.198;19.796;2023-03-11T01:58:38;93588.85;;;6.92;75.98
52935;BME280;38802;50.198;19.796;2023-03-11T02:01:08;93587.90;;;6.89;76.12
52935;BME280;38802;50.198;19.796;2023-03-11T02:03:38;93587.38;;;6.89;75.95
52935;BME280;38802;50.198;19.796;2023-03-11T02:06:10;93588.18;;;6.89;75.89
52935;BME280;38802;50.198;19.796;2023-03-11T02:08:40;93595.58;;;6.84;76.02
52935;BME280;38802;50.198;19.796;2023-03-11T02:11:17;93594.10;;;6.84;76.00
52935;BME280;38802;50.198;19.796;2023-03-11T02:13:46;93594.05;;;6.80;76.05
52935;BME280;38802;50.198;19.796;2023-03-11T02:16:17;93593.86;;;6.78;75.79
52935;BME280;38802;50.198;19.796;2023-03-11T02:18:45;93593.52;;;6.75;75.82
52935;BME280;38802;50.198;19.796;2023-03-11T02:21:28;93594.01;;;6.74;75.79
52935;BME280;38802;50.198;19.796;2023-03-11T02:27:08;93593.36;;;6.64;76.01
52935;BME280;38802;50.198;19.796;2023-03-11T02:29:40;93589.53;;;6.61;76.18
52935;BME280;38802;50.198;19.796;2023-03-11T02:32:09;93589.50;;;6.60;76.30
52935;BME280;38802;50.198;19.796;2023-03-11T02:34:41;93587.66;;;6.59;76.63
52935;BME280;38802;50.198;19.796;2023-03-11T02:37:12;93593.39;;;6.57;76.97
52935;BME280;38802;50.198;19.796;2023-03-11T02:39:46;93589.30;;;6.51;76.91
52935;BME280;38802;50.198;19.796;2023-03-11T02:42:27;93589.23;;;6.48;77.14
52935;BME280;38802;50.198;19.796;2023-03-11T02:45:02;93594.35;;;6.36;77.08
52935;BME280;38802;50.198;19.796;2023-03-11T02:47:32;93581.01;;;6.33;76.88
52935;BME280;38802;50.198;19.796;2023-03-11T02:50:01;93586.44;;;6.20;76.78
52935;BME280;38802;50.198;19.796;2023-03-11T02:52:32;93583.13;;;6.12;76.79
52935;BME280;38802;50.198;19.796;2023-03-11T02:55:01;93577.98;;;6.02;76.86
52935;BME280;38802;50.198;19.796;2023-03-11T02:57:30;93580.98;;;5.93;76.89
52935;BME280;38802;50.198;19.796;2023-03-11T02:59:58;93577.83;;;5.84;76.99
52935;BME280;38802;50.198;19.796;2023-03-11T03:02:29;93573.48;;;5.79;77.01
52935;BME280;38802;50.198;19.796;2023-03-11T03:04:56;93573.48;;;5.74;76.90
52935;BME280;38802;50.198;19.796;2023-03-11T03:07:25;93579.55;;;5.69;76.84
52935;BME280;38802;50.198;19.796;2023-03-11T03:09:55;93585.78;;;5.65;77.01
52935;BME280;38802;50.198;19.796;2023-03-11T03:12:23;93588.65;;;5.64;76.95
52935;BME280;38802;50.198;19.796;2023-03-11T03:14:51;93582.79;;;5.63;76.79
52935;BME280;38802;50.198;19.796;2023-03-11T03:17:19;93576.95;;;5.61;76.76
52935;BME280;38802;50.198;19.796;2023-03-11T03:19:48;93579.55;;;5.57;76.71
52935;BME280;38802;50.198;19.796;2023-03-11T03:22:16;93577.30;;;5.56;76.53
52935;BME280;38802;50.198;19.796;2023-03-11T03:24:44;93586.08;;;5.53;76.43
52935;BME280;38802;50.198;19.796;2023-03-11T03:27:13;93577.48;;;5.49;76.56
52935;BME280;38802;50.198;19.796;2023-03-11T03:29:41;93581.33;;;5.49;76.36
52935;BME280;38802;50.198;19.796;2023-03-11T03:32:09;93577.13;;;5.45;76.27
52935;BME280;38802;50.198;19.796;2023-03-11T03:34:37;93584.45;;;5.39;76.42
52935;BME280;38802;50.198;19.796;2023-03-11T03:37:05;93582.61;;;5.38;76.48
52935;BME280;38802;50.198;19.796;2023-03-11T03:39:34;93576.29;;;5.34;76.33
52935;BME280;38802;50.198;19.796;2023-03-11T03:42:02;93577.64;;;5.31;76.39
52935;BME280;38802;50.198;19.796;2023-03-11T03:44:30;93573.23;;;5.26;76.29
52935;BME280;38802;50.198;19.796;2023-03-11T03:46:59;93576.11;;;5.18;76.39
52935;BME280;38802;50.198;19.796;2023-03-11T03:49:27;93578.48;;;5.13;76.41
52935;BME280;38802;50.198;19.796;2023-03-11T03:51:55;93581.59;;;5.07;76.39
52935;BME280;38802;50.198;19.796;2023-03-11T03:54:30;93584.96;;;5.00;76.52
52935;BME280;38802;50.198;19.796;2023-03-11T03:56:58;93587.81;;;5.01;76.48
52935;BME280;38802;50.198;19.796;2023-03-11T03:59:26;93585.98;;;4.97;76.56
52935;BME280;38802;50.198;19.796;2023-03-11T04:01:56;93587.92;;;4.93;76.65
52935;BME280;38802;50.198;19.796;2023-03-11T04:04:25;93584.83;;;4.92;76.55
52935;BME280;38802;50.198;19.796;2023-03-11T04:06:54;93584.04;;;4.89;76.75
52935;BME280;38802;50.198;19.796;2023-03-11T04:09:22;93581.42;;;4.90;76.69
52935;BME280;38802;50.198;19.796;2023-03-11T04:11:50;93579.04;;;4.88;76.46
52935;BME280;38802;50.198;19.796;2023-03-11T04:14:18;93584.96;;;4.84;76.54
52935;BME280;38802;50.198;19.796;2023-03-11T04:16:52;93583.09;;;4.85;76.35
52935;BME280;38802;50.198;19.796;2023-03-11T04:19:20;93588.30;;;4.81;76.40
52935;BME280;38802;50.198;19.796;2023-03-11T04:21:49;93586.00;;;4.79;76.16
52935;BME280;38802;50.198;19.796;2023-03-11T04:24:19;93582.63;;;4.80;76.00
52935;BME280;38802;50.198;19.796;2023-03-11T04:26:47;93580.70;;;4.78;75.75
52935;BME280;38802;50.198;19.796;2023-03-11T04:29:16;93581.70;;;4.73;75.75
52935;BME280;38802;50.198;19.796;2023-03-11T04:31:48;93574.95;;;4.70;75.99
52935;BME280;38802;50.198;19.796;2023-03-11T04:34:16;93577.63;;;4.72;75.88
52935;BME280;38802;50.198;19.796;2023-03-11T04:36:44;93574.14;;;4.70;75.90
52935;BME280;38802;50.198;19.796;2023-03-11T04:39:13;93578.27;;;4.67;75.84
52935;BME280;38802;50.198;19.796;2023-03-11T04:41:43;93574.48;;;4.65;75.97
52935;BME280;38802;50.198;19.796;2023-03-11T04:44:15;93573.71;;;4.60;75.93
52935;BME280;38802;50.198;19.796;2023-03-11T04:46:43;93575.27;;;4.59;75.92
52935;BME280;38802;50.198;19.796;2023-03-11T04:49:11;93579.45;;;4.50;76.18
52935;BME280;38802;50.198;19.796;2023-03-11T04:51:40;93579.23;;;4.49;76.36
52935;BME280;38802;50.198;19.796;2023-03-11T04:54:09;93579.48;;;4.43;76.56
52935;BME280;38802;50.198;19.796;2023-03-11T04:56:38;93578.19;;;4.40;76.73
52935;BME280;38802;50.198;19.796;2023-03-11T04:59:06;93576.82;;;4.38;77.08
52935;BME280;38802;50.198;19.796;2023-03-11T05:01:35;93576.11;;;4.37;77.18
52935;BME280;38802;50.198;19.796;2023-03-11T05:04:04;93582.20;;;4.29;77.45
52935;BME280;38802;50.198;19.796;2023-03-11T05:06:32;93580.95;;;4.26;77.83
52935;BME280;38802;50.198;19.796;2023-03-11T05:09:02;93584.80;;;4.17;78.23
52935;BME280;38802;50.198;19.796;2023-03-11T05:11:33;93588.77;;;4.14;78.38
52935;BME280;38802;50.198;19.796;2023-03-11T05:14:03;93597.73;;;4.06;79.00
52935;BME280;38802;50.198;19.796;2023-03-11T05:16:31;93601.98;;;3.98;79.22
52935;BME280;38802;50.198;19.796;2023-03-11T05:19:00;93601.11;;;3.93;79.68
52935;BME280;38802;50.198;19.796;2023-03-11T05:21:28;93603.80;;;3.85;80.03
52935;BME280;38802;50.198;19.796;2023-03-11T05:23:56;93604.19;;;3.75;80.88
52935;BME280;38802;50.198;19.796;2023-03-11T05:26:24;93601.58;;;3.62;81.10
52935;BME280;38802;50.198;19.796;2023-03-11T05:28:53;93600.74;;;3.49;81.13
52935;BME280;38802;50.198;19.796;2023-03-11T05:31:21;93593.76;;;3.43;81.84
52935;BME280;38802;50.198;19.796;2023-03-11T05:33:49;93596.73;;;3.33;82.28
52935;BME280;38802;50.198;19.796;2023-03-11T05:36:17;93593.08;;;3.18;82.13
52935;BME280;38802;50.198;19.796;2023-03-11T05:38:45;93597.74;;;3.14;82.81
52935;BME280;38802;50.198;19.796;2023-03-11T05:41:14;93592.11;;;3.10;83.61
52935;BME280;38802;50.198;19.796;2023-03-11T05:43:42;93593.34;;;3.01;83.62
52935;BME280;38802;50.198;19.796;2023-03-11T05:46:11;93601.00;;;2.96;84.13
52935;BME280;38802;50.198;19.796;2023-03-11T05:48:39;93605.05;;;2.91;84.22
52935;BME280;38802;50.198;19.796;2023-03-11T05:51:09;93601.56;;;2.84;84.24
52935;BME280;38802;50.198;19.796;2023-03-11T05:53:41;93600.23;;;2.84;84.75
52935;BME280;38802;50.198;19.796;2023-03-11T05:56:09;93596.81;;;2.86;85.05
52935;BME280;38802;50.198;19.796;2023-03-11T05:58:37;93598.52;;;2.82;85.46
52935;BME280;38802;50.198;19.796;2023-03-11T06:01:14;93602.54;;;2.80;85.54
52935;BME280;38802;50.198;19.796;2023-03-11T06:03:43;93605.04;;;2.73;85.61
52935;BME280;38802;50.198;19.796;2023-03-11T06:06:12;93608.70;;;2.73;85.90
52935;BME280;38802;50.198;19.796;2023-03-11T06:08:40;93612.05;;;2.68;85.85
52935;BME280;38802;50.198;19.796;2023-03-11T06:11:17;93611.11;;;2.67;86.39
52935;BME280;38802;50.198;19.796;2023-03-11T06:13:45;93618.27;;;2.62;86.18
52935;BME280;38802;50.198;19.796;2023-03-11T06:16:14;93618.36;;;2.61;86.74
52935;BME280;38802;50.198;19.796;2023-03-11T06:18:43;93628.44;;;2.52;86.64
52935;BME280;38802;50.198;19.796;2023-03-11T06:21:19;93640.48;;;2.44;86.87
52935;BME280;38802;50.198;19.796;2023-03-11T06:23:48;93650.41;;;2.36;86.15
52935;BME280;38802;50.198;19.796;2023-03-11T06:26:18;93659.39;;;2.38;86.74
52935;BME280;38802;50.198;19.796;2023-03-11T06:28:48;93665.64;;;2.28;86.72
52935;BME280;38802;50.198;19.796;2023-03-11T06:31:27;93673.34;;;2.22;86.69
52935;BME280;38802;50.198;19.796;2023-03-11T06:34:01;93672.41;;;2.13;86.81
52935;BME280;38802;50.198;19.796;2023-03-11T06:36:30;93676.48;;;2.08;87.28
52935;BME280;38802;50.198;19.796;2023-03-11T06:38:58;93684.17;;;1.98;87.41
52935;BME280;38802;50.198;19.796;2023-03-11T06:41:27;93683.48;;;1.93;87.43
52935;BME280;38802;50.198;19.796;2023-03-11T06:43:56;93683.19;;;1.81;87.41
52935;BME280;38802;50.198;19.796;2023-03-11T06:46:27;93686.58;;;1.71;87.52
52935;BME280;38802;50.198;19.796;2023-03-11T06:48:56;93694.11;;;1.60;87.45
52935;BME280;38802;50.198;19.796;2023-03-11T06:51:24;93694.11;;;1.54;87.62
52935;BME280;38802;50.198;19.796;2023-03-11T06:53:53;93701.39;;;1.47;87.56
52935;BME280;38802;50.198;19.796;2023-03-11T06:56:22;93701.37;;;1.39;87.59
52935;BME280;38802;50.198;19.796;2023-03-11T06:58:55;93707.59;;;1.33;87.72
52935;BME280;38802;50.198;19.796;2023-03-11T07:01:24;93709.17;;;1.26;87.95
52935;BME280;38802;50.198;19.796;2023-03-11T07:03:55;93709.98;;;1.19;88.05
52935;BME280;38802;50.198;19.796;2023-03-11T07:06:25;93704.08;;;1.12;88.24
52935;BME280;38802;50.198;19.796;2023-03-11T07:09:00;93716.77;;;1.01;88.08
52935;BME280;38802;50.198;19.796;2023-03-11T07:11:29;93724.59;;;1.00;88.51
52935;BME280;38802;50.198;19.796;2023-03-11T07:14:04;93731.86;;;0.99;88.30
52935;BME280;38802;50.198;19.796;2023-03-11T07:16:37;93732.35;;;0.99;88.63
52935;BME280;38802;50.198;19.796;2023-03-11T07:19:12;93732.29;;;0.98;88.77
52935;BME280;38802;50.198;19.796;2023-03-11T07:21:40;93731.23;;;1.01;88.78
52935;BME280;38802;50.198;19.796;2023-03-11T07:24:11;93739.40;;;0.91;88.67
52935;BME280;38802;50.198;19.796;2023-03-11T07:26:40;93742.59;;;0.87;88.99
52935;BME280;38802;50.198;19.796;2023-03-11T07:29:11;93746.37;;;0.83;88.87
52935;BME280;38802;50.198;19.796;2023-03-11T07:31:40;93746.95;;;0.84;89.30
52935;BME280;38802;50.198;19.796;2023-03-11T07:34:11;93747.59;;;0.85;89.55
52935;BME280;38802;50.198;19.796;2023-03-11T07:36:41;93749.54;;;0.81;89.45
52935;BME280;38802;50.198;19.796;2023-03-11T07:39:13;93758.91;;;0.86;89.62
52935;BME280;38802;50.198;19.796;2023-03-11T07:41:42;93753.09;;;0.92;89.64
52935;BME280;38802;50.198;19.796;2023-03-11T07:44:12;93758.94;;;0.96;89.60
52935;BME280;38802;50.198;19.796;2023-03-11T07:46:40;93757.80;;;0.98;89.87
52935;BME280;38802;50.198;19.796;2023-03-11T07:49:10;93764.55;;;0.97;89.74
52935;BME280;38802;50.198;19.796;2023-03-11T07:51:38;93759.79;;;0.94;89.55
52935;BME280;38802;50.198;19.796;2023-03-11T07:54:11;93766.91;;;0.93;89.65
52935;BME280;38802;50.198;19.796;2023-03-11T07:56:40;93759.71;;;0.95;89.92
52935;BME280;38802;50.198;19.796;2023-03-11T07:59:08;93763.89;;;0.90;89.90
52935;BME280;38802;50.198;19.796;2023-03-11T08:01:36;93761.30;;;0.88;89.95
52935;BME280;38802;50.198;19.796;2023-03-11T08:04:08;93767.16;;;0.92;90.01
52935;BME280;38802;50.198;19.796;2023-03-11T08:06:43;93769.08;;;0.96;90.16
52935;BME280;38802;50.198;19.796;2023-03-11T08:09:12;93770.56;;;0.94;89.89
52935;BME280;38802;50.198;19.796;2023-03-11T08:11:41;93768.97;;;0.88;89.87
52935;BME280;38802;50.198;19.796;2023-03-11T08:14:10;93775.61;;;0.89;89.85
52935;BME280;38802;50.198;19.796;2023-03-11T08:16:39;93779.02;;;0.85;89.96
52935;BME280;38802;50.198;19.796;2023-03-11T08:19:10;93779.08;;;0.86;89.90
52935;BME280;38802;50.198;19.796;2023-03-11T08:21:39;93779.75;;;0.90;90.11
52935;BME280;38802;50.198;19.796;2023-03-11T08:24:10;93789.20;;;0.92;90.07
52935;BME280;38802;50.198;19.796;2023-03-11T08:26:40;93796.17;;;0.94;90.03
52935;BME280;38802;50.198;19.796;2023-03-11T08:29:08;93797.22;;;0.92;90.03
52935;BME280;38802;50.198;19.796;2023-03-11T08:31:36;93799.27;;;0.94;89.72
52935;BME280;38802;50.198;19.796;2023-03-11T08:34:09;93806.20;;;0.93;89.96
52935;BME280;38802;50.198;19.796;2023-03-11T08:36:38;93802.15;;;0.96;89.78
52935;BME280;38802;50.198;19.796;2023-03-11T08:39:06;93813.28;;;0.92;89.89
52935;BME280;38802;50.198;19.796;2023-03-11T08:41:36;93814.40;;;0.89;89.71
52935;BME280;38802;50.198;19.796;2023-03-11T08:44:06;93823.42;;;0.87;89.79
52935;BME280;38802;50.198;19.796;2023-03-11T08:46:37;93825.35;;;0.86;89.70
52935;BME280;38802;50.198;19.796;2023-03-11T08:49:06;93819.80;;;0.92;89.79
52935;BME280;38802;50.198;19.796;2023-03-11T08:51:35;93826.98;;;0.85;89.74
52935;BME280;38802;50.198;19.796;2023-03-11T08:54:03;93826.64;;;0.83;89.86
52935;BME280;38802;50.198;19.796;2023-03-11T08:56:32;93830.05;;;0.83;89.73
52935;BME280;38802;50.198;19.796;2023-03-11T08:59:00;93829.55;;;0.81;89.75
52935;BME280;38802;50.198;19.796;2023-03-11T09:01:29;93833.05;;;0.82;89.85
52935;BME280;38802;50.198;19.796;2023-03-11T09:03:58;93835.02;;;0.79;89.88
52935;BME280;38802;50.198;19.796;2023-03-11T09:06:26;93838.56;;;0.82;89.83
52935;BME280;38802;50.198;19.796;2023-03-11T09:08:57;93840.22;;;0.84;89.93
52935;BME280;38802;50.198;19.796;2023-03-11T09:11:25;93845.63;;;0.81;89.69
52935;BME280;38802;50.198;19.796;2023-03-11T09:13:54;93852.84;;;0.77;89.67
52935;BME280;38802;50.198;19.796;2023-03-11T09:16:23;93848.98;;;0.78;89.78
52935;BME280;38802;50.198;19.796;2023-03-11T09:18:51;93852.38;;;0.80;89.66
52935;BME280;38802;50.198;19.796;2023-03-11T09:21:19;93861.19;;;0.79;89.68
52935;BME280;38802;50.198;19.796;2023-03-11T09:23:47;93865.43;;;0.71;89.77
52935;BME280;38802;50.198;19.796;2023-03-11T09:26:16;93871.48;;;0.72;89.74
52935;BME280;38802;50.198;19.796;2023-03-11T09:28:44;93877.61;;;0.69;89.57
52935;BME280;38802;50.198;19.796;2023-03-11T09:31:16;93878.03;;;0.63;89.97
52935;BME280;38802;50.198;19.796;2023-03-11T09:33:45;93883.84;;;0.53;89.80
52935;BME280;38802;50.198;19.796;2023-03-11T09:36:16;93888.27;;;0.57;89.74
52935;BME280;38802;50.198;19.796;2023-03-11T09:38:45;93893.08;;;0.63;89.99
52935;BME280;38802;50.198;19.796;2023-03-11T09:44:01;93893.49;;;0.56;89.84
52935;BME280;38802;50.198;19.796;2023-03-11T09:58:11;93903.29;;;0.40;89.89
52935;BME280;38802;50.198;19.796;2023-03-11T10:00:40;93906.42;;;0.37;90.03
52935;BME280;38802;50.198;19.796;2023-03-11T10:03:35;93911.83;;;0.43;89.74
52935;BME280;38802;50.198;19.796;2023-03-11T10:06:20;93915.39;;;0.45;89.92
52935;BME280;38802;50.198;19.796;2023-03-11T10:14:25;93925.48;;;0.43;89.86
52935;BME280;38802;50.198;19.796;2023-03-11T10:19:33;93937.36;;;0.35;89.97
52935;BME280;38802;50.198;19.796;2023-03-11T10:24:57;93953.48;;;0.27;89.83
52935;BME280;38802;50.198;19.796;2023-03-11T10:27:50;93953.00;;;0.25;90.18
52935;BME280;38802;50.198;19.796;2023-03-11T10:30:36;93957.11;;;0.20;90.37
52935;BME280;38802;50.198;19.796;2023-03-11T10:33:20;93966.39;;;0.15;90.39
52935;BME280;38802;50.198;19.796;2023-03-11T10:35:54;93968.34;;;0.12;90.57
52935;BME280;38802;50.198;19.796;2023-03-11T10:41:03;93976.08;;;0.11;90.80
52935;BME280;38802;50.198;19.796;2023-03-11T10:43:36;93973.59;;;0.11;91.12
52935;BME280;38802;50.198;19.796;2023-03-11T10:46:14;93981.90;;;0.09;90.81
52935;BME280;38802;50.198;19.796;2023-03-11T10:48:44;93976.27;;;0.05;91.09
52935;BME280;38802;50.198;19.796;2023-03-11T10:51:20;93985.77;;;0.03;91.38
52935;BME280;38802;50.198;19.796;2023-03-11T10:53:52;93987.73;;;-0.00;90.63
52935;BME280;38802;50.198;19.796;2023-03-11T10:56:38;93994.62;;;-0.06;91.01
52935;BME280;38802;50.198;19.796;2023-03-11T11:04:34;94003.93;;;-0.18;91.45
52935;BME280;38802;50.198;19.796;2023-03-11T11:07:27;94006.98;;;-0.22;91.44
52935;BME280;38802;50.198;19.796;2023-03-11T11:10:12;94012.13;;;-0.27;91.63
52935;BME280;38802;50.198;19.796;2023-03-11T11:18:13;94021.04;;;-0.25;91.87
52935;BME280;38802;50.198;19.796;2023-03-11T11:21:01;94028.05;;;-0.33;92.12
52935;BME280;38802;50.198;19.796;2023-03-11T11:26:02;94034.85;;;-0.39;91.95
52935;BME280;38802;50.198;19.796;2023-03-11T11:28:32;94041.85;;;-0.39;91.85
52935;BME280;38802;50.198;19.796;2023-03-11T11:31:03;94046.64;;;-0.39;91.81
52935;BME280;38802;50.198;19.796;2023-03-11T11:33:32;94045.53;;;-0.36;91.99
52935;BME280;38802;50.198;19.796;2023-03-11T11:36:11;94055.58;;;-0.36;92.23
52935;BME280;38802;50.198;19.796;2023-03-11T11:38:41;94060.23;;;-0.38;92.40
52935;BME280;38802;50.198;19.796;2023-03-11T11:41:15;94062.37;;;-0.35;92.07
52935;BME280;38802;50.198;19.796;2023-03-11T11:44:03;94067.94;;;-0.34;92.26
52935;BME280;38802;50.198;19.796;2023-03-11T11:46:55;94070.35;;;-0.35;91.85
52935;BME280;38802;50.198;19.796;2023-03-11T11:49:28;94080.25;;;-0.37;92.48
52935;BME280;38802;50.198;19.796;2023-03-11T11:52:19;94079.91;;;-0.37;92.52
52935;BME280;38802;50.198;19.796;2023-03-11T11:54:55;94087.61;;;-0.35;92.79
52935;BME280;38802;50.198;19.796;2023-03-11T11:57:24;94090.11;;;-0.29;92.39
52935;BME280;38802;50.198;19.796;2023-03-11T11:59:54;94099.84;;;-0.32;92.38
52935;BME280;38802;50.198;19.796;2023-03-11T12:13:12;94136.91;;;-0.40;92.32
52935;BME280;38802;50.198;19.796;2023-03-11T12:15:55;94152.97;;;-0.52;92.14
52935;BME280;38802;50.198;19.796;2023-03-11T12:18:46;94163.01;;;-0.54;92.60
52935;BME280;38802;50.198;19.796;2023-03-11T12:29:45;94190.25;;;-0.70;91.71
52935;BME280;38802;50.198;19.796;2023-03-11T12:32:33;94200.57;;;-0.76;92.11
52935;BME280;38802;50.198;19.796;2023-03-11T12:35:27;94203.92;;;-0.75;91.76
52935;BME280;38802;50.198;19.796;2023-03-11T12:46:08;94237.45;;;-0.79;91.78
52935;BME280;38802;50.198;19.796;2023-03-11T12:54:27;94261.54;;;-0.77;91.73
52935;BME280;38802;50.198;19.796;2023-03-11T12:57:02;94276.63;;;-0.81;91.71
52935;BME280;38802;50.198;19.796;2023-03-11T13:07:41;94302.50;;;-0.78;90.92
52935;BME280;38802;50.198;19.796;2023-03-11T13:12:45;94331.49;;;-0.80;90.30
52935;BME280;38802;50.198;19.796;2023-03-11T13:18:21;94350.62;;;-0.81;90.52
52935;BME280;38802;50.198;19.796;2023-03-11T13:20:57;94352.05;;;-0.77;90.87
52935;BME280;38802;50.198;19.796;2023-03-11T13:26:16;94364.36;;;-0.78;90.76
52935;BME280;38802;50.198;19.796;2023-03-11T13:29:05;94372.79;;;-0.76;90.51
52935;BME280;38802;50.198;19.796;2023-03-11T13:40:05;94397.92;;;-0.77;90.75
52935;BME280;38802;50.198;19.796;2023-03-11T13:42:48;94400.52;;;-0.80;90.75
52935;BME280;38802;50.198;19.796;2023-03-11T13:47:48;94419.55;;;-0.93;90.41
52935;BME280;38802;50.198;19.796;2023-03-11T13:50:30;94425.86;;;-0.95;90.83
52935;BME280;38802;50.198;19.796;2023-03-11T13:53:00;94428.80;;;-0.96;90.41
52935;BME280;38802;50.198;19.796;2023-03-11T13:55:33;94435.77;;;-0.96;90.29
52935;BME280;38802;50.198;19.796;2023-03-11T13:58:16;94442.34;;;-0.97;90.66
52935;BME280;38802;50.198;19.796;2023-03-11T14:00:48;94451.50;;;-1.01;90.78
52935;BME280;38802;50.198;19.796;2023-03-11T14:03:18;94458.30;;;-1.01;90.92
52935;BME280;38802;50.198;19.796;2023-03-11T14:06:00;94466.70;;;-1.04;90.72
52935;BME280;38802;50.198;19.796;2023-03-11T14:08:36;94472.64;;;-1.04;90.90
52935;BME280;38802;50.198;19.796;2023-03-11T14:16:09;94490.67;;;-1.11;89.82
52935;BME280;38802;50.198;19.796;2023-03-11T14:21:23;94505.31;;;-1.19;89.84
52935;BME280;38802;50.198;19.796;2023-03-11T14:23:52;94509.41;;;-1.16;89.30
52935;BME280;38802;50.198;19.796;2023-03-11T14:26:33;94520.70;;;-1.14;89.11
52935;BME280;38802;50.198;19.796;2023-03-11T14:29:08;94528.84;;;-1.14;88.51
52935;BME280;38802;50.198;19.796;2023-03-11T14:31:39;94531.79;;;-1.12;89.10
52935;BME280;38802;50.198;19.796;2023-03-11T14:36:53;94547.78;;;-1.12;88.55
52935;BME280;38802;50.198;19.796;2023-03-11T14:39:35;94554.17;;;-1.10;88.50
52935;BME280;38802;50.198;19.796;2023-03-11T14:47:48;94580.20;;;-1.17;88.61
52935;BME280;38802;50.198;19.796;2023-03-11T14:50:25;94590.91;;;-1.22;88.45
52935;BME280;38802;50.198;19.796;2023-03-11T14:53:05;94593.80;;;-1.25;88.08
52935;BME280;38802;50.198;19.796;2023-03-11T14:55:38;94601.77;;;-1.27;88.14
52935;BME280;38802;50.198;19.796;2023-03-11T14:58:14;94607.91;;;-1.24;87.99
52935;BME280;38802;50.198;19.796;2023-03-11T15:01:09;94614.24;;;-1.31;87.68
52935;BME280;38802;50.198;19.796;2023-03-11T15:03:52;94616.42;;;-1.33;87.99
52935;BME280;38802;50.198;19.796;2023-03-11T15:06:27;94618.68;;;-1.37;87.68
52935;BME280;38802;50.198;19.796;2023-03-11T15:11:26;94629.05;;;-1.42;87.44
52935;BME280;38802;50.198;19.796;2023-03-11T15:14:13;94630.76;;;-1.42;87.71
52935;BME280;38802;50.198;19.796;2023-03-11T15:16:44;94636.62;;;-1.46;87.92
52935;BME280;38802;50.198;19.796;2023-03-11T15:22:06;94656.91;;;-1.46;87.47
52935;BME280;38802;50.198;19.796;2023-03-11T15:24:49;94664.68;;;-1.48;87.59
52935;BME280;38802;50.198;19.796;2023-03-11T15:29:57;94678.58;;;-1.52;88.31
52935;BME280;38802;50.198;19.796;2023-03-11T15:35:02;94692.58;;;-1.59;88.52
52935;BME280;38802;50.198;19.796;2023-03-11T15:37:31;94696.86;;;-1.59;88.58